Time;durP1;ratioP1;P1;durP2;ratioP2;P2;SDS_P1;SDS_P2;PMS_P1;PMS_P2;Temp;Humidity;BMP_temperature;BMP_pressure;BME280_temperature;BME280_humidity;BME280_pressure;Samples;Min_cycle;Max_cycle;Signal;HPM_P1;HPM_P2
2024/04/04 00:01:02;;;;;;;2.30;1.70;;;10.70;99.90;;;;;;4845453;29;20174;-79
2024/04/04 00:03:30;;;;;;;3.90;1.77;;;10.70;99.90;;;;;;4862285;29;20191;-81
2024/04/04 00:05:56;;;;;;;3.03;1.88;;;10.70;99.90;;;;;;4862824;29;20220;-81
2024/04/04 00:08:22;;;;;;;3.00;1.98;;;10.70;99.90;;;;;;4863747;29;20184;-81
2024/04/04 00:10:48;;;;;;;3.17;1.80;;;10.70;99.90;;;;;;4863499;29;20169;-81
2024/04/04 00:13:14;;;;;;;3.05;1.80;;;10.60;99.90;;;;;;4863378;29;20180;-81
2024/04/04 00:15:41;;;;;;;2.85;1.80;;;10.60;99.90;;;;;;4863095;29;20572;-81
2024/04/04 00:18:08;;;;;;;1.90;1.70;;;10.60;99.90;;;;;;4863285;29;20260;-81
2024/04/04 00:20:41;;;;;;;4.47;1.80;;;10.50;99.90;;;;;;4863435;29;20177;-81
2024/04/04 00:23:07;;;;;;;3.38;1.98;;;10.50;99.90;;;;;;4862275;29;20185;-81
2024/04/04 00:25:33;;;;;;;1.80;1.65;;;10.50;99.90;;;;;;4846581;29;20628;-81
2024/04/04 00:27:59;;;;;;;3.22;1.70;;;10.40;99.90;;;;;;4863294;29;20491;-82
2024/04/04 00:30:25;;;;;;;4.60;1.85;;;10.40;99.90;;;;;;4862925;29;20180;-81
2024/04/04 00:32:53;;;;;;;3.28;1.92;;;10.40;99.90;;;;;;4863148;29;20177;-80
2024/04/04 00:35:19;;;;;;;2.83;1.92;;;10.40;99.90;;;;;;4863188;29;20573;-80
2024/04/04 00:37:47;;;;;;;3.05;2.00;;;10.40;99.90;;;;;;4862730;29;20181;-83
2024/04/04 00:40:14;;;;;;;3.95;1.73;;;10.30;99.90;;;;;;4861401;29;20292;-81
2024/04/04 00:42:40;;;;;;;5.57;2.17;;;10.30;99.90;;;;;;4846208;29;20172;-81
2024/04/04 00:45:06;;;;;;;3.30;1.90;;;10.30;99.90;;;;;;4862836;29;20502;-81
2024/04/04 00:47:32;;;;;;;3.10;1.77;;;10.30;99.90;;;;;;4862630;29;20180;-81
2024/04/04 00:49:58;;;;;;;1.70;1.60;;;10.30;99.90;;;;;;4862594;29;20689;-80
2024/04/04 00:52:24;;;;;;;4.38;1.92;;;10.30;99.90;;;;;;4861071;29;20275;-80
2024/04/04 00:54:51;;;;;;;3.13;1.90;;;10.30;99.90;;;;;;4862625;29;20513;-82
2024/04/04 00:57:17;;;;;;;3.90;1.98;;;10.30;99.90;;;;;;4862518;29;20572;-81
2024/04/04 00:59:43;;;;;;;4.07;2.13;;;10.30;99.90;;;;;;4861383;29;20219;-82
2024/04/04 01:02:08;;;;;;;3.22;2.08;;;10.30;99.90;;;;;;4862537;29;20181;-81
2024/04/04 01:04:34;;;;;;;9.38;2.30;;;10.30;99.90;;;;;;4861723;29;20181;-81
2024/04/04 01:07:00;;;;;;;5.75;2.10;;;10.40;99.90;;;;;;4845342;29;20667;-81
2024/04/04 01:09:26;;;;;;;3.70;1.95;;;10.40;99.90;;;;;;4845794;29;20181;-82
2024/04/04 01:11:52;;;;;;;3.55;1.75;;;10.40;99.90;;;;;;4861593;29;20244;-81
2024/04/04 01:14:17;;;;;;;3.58;1.60;;;10.40;99.90;;;;;;4862319;29;20184;-81
2024/04/04 01:16:43;;;;;;;5.57;1.83;;;10.40;99.90;;;;;;4862165;29;20229;-82
2024/04/04 01:19:09;;;;;;;3.58;1.40;;;10.40;99.90;;;;;;4861617;29;20247;-82
2024/04/04 01:21:35;;;;;;;7.13;1.50;;;10.40;99.90;;;;;;4860940;29;20237;-81
2024/04/04 01:24:00;;;;;;;2.72;1.60;;;10.40;99.90;;;;;;4862368;29;20188;-81
2024/04/04 01:26:27;;;;;;;2.88;1.48;;;10.40;99.90;;;;;;4862277;29;20512;-81
2024/04/04 01:28:52;;;;;;;5.93;2.20;;;10.40;99.90;;;;;;4862225;29;20620;-82
2024/04/04 01:31:18;;;;;;;3.00;1.15;;;10.40;99.90;;;;;;4862185;29;20227;-81
2024/04/04 01:33:44;;;;;;;2.67;1.40;;;10.40;99.90;;;;;;4862213;29;20185;-82
2024/04/04 01:36:09;;;;;;;4.90;1.50;;;10.40;99.90;;;;;;4860574;29;20303;-82
2024/04/04 01:38:35;;;;;;;2.85;1.40;;;10.40;99.90;;;;;;4862022;29;20209;-82
2024/04/04 01:41:01;;;;;;;2.53;1.20;;;10.40;99.90;;;;;;4861965;29;20184;-80
2024/04/04 01:43:27;;;;;;;2.47;1.20;;;10.40;99.90;;;;;;4860718;29;20185;-82
2024/04/04 01:45:52;;;;;;;4.32;1.85;;;10.40;99.90;;;;;;4861870;29;20176;-81
2024/04/04 01:48:19;;;;;;;5.45;1.40;;;10.40;99.90;;;;;;4862288;29;20212;-80
2024/04/04 01:50:45;;;;;;;3.85;1.30;;;10.40;99.90;;;;;;4862151;29;20181;-83
2024/04/04 01:53:11;;;;;;;3.10;1.27;;;10.40;99.90;;;;;;4860699;29;20195;-81
2024/04/04 01:55:36;;;;;;;2.83;1.20;;;10.40;99.90;;;;;;4861710;29;20192;-81
2024/04/04 01:58:02;;;;;;;7.47;1.27;;;10.30;99.90;;;;;;4861681;29;20192;-81
2024/04/04 02:00:28;;;;;;;3.72;1.02;;;10.30;99.90;;;;;;4861508;29;20180;-81
2024/04/04 02:02:54;;;;;;;5.30;1.40;;;10.30;99.90;;;;;;4860545;29;20189;-81
2024/04/04 02:05:20;;;;;;;3.40;0.98;;;10.30;99.90;;;;;;4861450;29;20322;-82
2024/04/04 02:07:47;;;;;;;6.53;1.10;;;10.30;99.90;;;;;;4861427;29;20272;-82
2024/04/04 02:10:12;;;;;;;4.93;1.38;;;10.30;99.90;;;;;;4861687;29;20177;-81
2024/04/04 02:12:38;;;;;;;2.38;1.00;;;10.30;99.90;;;;;;4861634;29;20257;-80
2024/04/04 02:15:04;;;;;;;8.93;1.42;;;10.20;99.90;;;;;;4861650;29;20188;-80
2024/04/04 02:17:30;;;;;;;8.43;1.35;;;10.30;99.90;;;;;;4861612;29;20243;-81
2024/04/04 02:19:56;;;;;;;4.38;1.38;;;10.20;99.90;;;;;;4861444;29;20272;-81
2024/04/04 02:22:22;;;;;;;6.75;1.00;;;10.20;99.90;;;;;;4861385;29;20161;-81
2024/04/04 02:24:48;;;;;;;3.40;1.13;;;10.20;99.90;;;;;;4861601;29;20244;-81
2024/04/04 02:27:14;;;;;;;2.75;1.20;;;10.20;99.90;;;;;;4861183;29;20172;-81
2024/04/04 02:29:45;;;;;;;6.78;1.50;;;10.20;99.90;;;;;;4862952;29;20925;-82
2024/04/04 02:32:11;;;;;;;4.78;1.17;;;10.20;99.90;;;;;;4862121;29;20197;-82
2024/04/04 02:34:37;;;;;;;5.88;1.45;;;10.20;99.90;;;;;;4865115;29;20180;-82
2024/04/04 02:37:02;;;;;;;4.88;1.23;;;10.20;99.90;;;;;;4847374;29;20188;-80
2024/04/04 02:39:28;;;;;;;2.53;1.00;;;10.20;99.90;;;;;;4863320;29;20549;-82
2024/04/04 02:41:54;;;;;;;5.60;1.38;;;10.20;99.90;;;;;;4848415;29;20169;-81
2024/04/04 02:44:20;;;;;;;4.55;1.33;;;10.10;99.90;;;;;;4864353;29;20215;-81
2024/04/04 02:46:46;;;;;;;4.50;1.20;;;10.10;99.90;;;;;;4864896;29;20629;-80
2024/04/04 02:49:12;;;;;;;2.33;1.10;;;10.10;99.90;;;;;;4864785;29;20180;-80
2024/04/04 02:51:37;;;;;;;5.72;1.33;;;10.10;99.90;;;;;;4833069;29;20245;-81
2024/04/04 02:54:04;;;;;;;4.70;1.08;;;10.10;99.90;;;;;;4864695;29;20625;-80
2024/04/04 02:56:30;;;;;;;3.72;1.45;;;10.10;99.90;;;;;;4863390;29;20708;-80
2024/04/04 02:58:56;;;;;;;2.63;1.00;;;10.10;99.90;;;;;;4864348;29;20692;-82
2024/04/04 03:01:22;;;;;;;4.97;1.00;;;10.10;99.90;;;;;;4864698;29;20181;-80
2024/04/04 03:03:49;;;;;;;2.38;0.90;;;10.00;99.90;;;;;;4847882;29;20247;-81
2024/04/04 03:06:18;;;;;;;3.83;1.23;;;10.00;99.90;;;;;;4860312;29;20677;-81
2024/04/04 03:08:44;;;;;;;3.38;1.30;;;10.00;99.90;;;;;;4864455;29;20177;-80
2024/04/04 03:11:11;;;;;;;2.75;1.23;;;10.00;99.90;;;;;;4863344;29;20185;-83
2024/04/04 03:13:37;;;;;;;4.32;1.10;;;10.00;99.90;;;;;;4862097;29;20180;-83
2024/04/04 03:16:03;;;;;;;2.92;1.05;;;10.00;99.90;;;;;;4864254;29;20177;-81
2024/04/04 03:18:29;;;;;;;3.45;1.10;;;10.00;99.90;;;;;;4864292;29;20216;-81
2024/04/04 03:20:55;;;;;;;4.60;1.55;;;10.00;99.90;;;;;;4863136;29;20203;-82
2024/04/04 03:23:20;;;;;;;5.38;1.20;;;10.00;99.90;;;;;;4864289;29;20236;-80
2024/04/04 03:25:46;;;;;;;4.65;1.00;;;10.00;99.90;;;;;;4864180;29;20362;-82
2024/04/04 03:28:12;;;;;;;3.30;0.90;;;10.00;99.90;;;;;;4864190;29;20173;-82
2024/04/04 03:30:39;;;;;;;5.00;1.20;;;10.00;99.90;;;;;;4864088;29;20259;-82
2024/04/04 03:33:05;;;;;;;2.58;1.20;;;10.00;99.90;;;;;;4864311;29;20506;-81
2024/04/04 03:35:30;;;;;;;3.53;1.25;;;10.00;99.90;;;;;;4864044;29;20192;-82
2024/04/04 03:37:56;;;;;;;6.22;1.30;;;9.90;99.90;;;;;;4864044;29;20181;-79
2024/04/04 03:40:22;;;;;;;4.57;1.35;;;9.90;99.90;;;;;;4863485;29;20212;-79
2024/04/04 03:42:48;;;;;;;5.97;1.30;;;9.90;99.90;;;;;;4861714;29;20637;-80
2024/04/04 03:45:13;;;;;;;3.67;1.02;;;9.80;99.90;;;;;;4863750;29;20181;-81
2024/04/04 03:47:39;;;;;;;6.15;1.15;;;9.70;99.90;;;;;;4863924;29;20259;-81
2024/04/04 03:50:05;;;;;;;3.97;1.10;;;9.70;99.90;;;;;;4863894;29;20684;-81
2024/04/04 03:52:31;;;;;;;7.75;1.63;;;9.70;99.90;;;;;;4862764;29;20192;-80
2024/04/04 03:54:57;;;;;;;4.00;1.00;;;9.60;99.90;;;;;;4863798;29;20618;-82
2024/04/04 03:57:23;;;;;;;4.15;1.20;;;9.60;99.90;;;;;;4850984;29;20185;-81
2024/04/04 03:59:49;;;;;;;4.88;1.30;;;9.60;99.90;;;;;;4845004;29;20263;-81
2024/04/04 04:02:15;;;;;;;6.65;1.30;;;9.50;99.90;;;;;;4857698;29;20192;-81
2024/04/04 04:04:41;;;;;;;2.83;1.00;;;9.50;99.90;;;;;;4862619;29;20184;-80
2024/04/04 04:07:07;;;;;;;3.75;1.23;;;9.50;99.90;;;;;;4862149;29;20676;-82
2024/04/04 04:09:32;;;;;;;6.28;1.23;;;9.40;99.90;;;;;;4863589;29;20310;-80
2024/04/04 04:11:58;;;;;;;5.43;1.23;;;9.40;99.90;;;;;;4863549;29;20165;-81
2024/04/04 04:14:24;;;;;;;4.85;1.17;;;9.30;99.90;;;;;;4863224;29;20624;-81
2024/04/04 04:16:50;;;;;;;7.18;1.50;;;9.40;99.90;;;;;;4862096;29;20226;-80
2024/04/04 04:19:16;;;;;;;2.22;1.02;;;9.30;99.90;;;;;;4861972;29;20232;-81
2024/04/04 04:21:41;;;;;;;9.25;1.33;;;9.30;99.90;;;;;;4863348;29;20165;-81
2024/04/04 04:24:07;;;;;;;3.85;1.10;;;9.30;99.90;;;;;;4863610;29;20188;-81
2024/04/04 04:26:33;;;;;;;4.63;1.13;;;9.30;99.90;;;;;;4863392;29;20632;-83
2024/04/04 04:28:59;;;;;;;7.80;1.38;;;9.20;99.90;;;;;;4862928;29;20624;-80
2024/04/04 04:31:33;;;;;;;6.82;1.38;;;9.20;99.90;;;;;;4863056;29;20192;-81
2024/04/04 04:34:01;;;;;;;3.15;1.10;;;9.20;99.90;;;;;;4863315;29;20175;-82
2024/04/04 04:36:33;;;;;;;4.45;1.10;;;9.10;99.90;;;;;;4863108;29;20181;-79
2024/04/04 04:38:59;;;;;;;2.50;1.10;;;9.10;99.90;;;;;;4863068;29;20257;-82
2024/04/04 04:41:25;;;;;;;5.43;1.10;;;9.00;99.90;;;;;;4861962;29;20189;-80
2024/04/04 04:43:50;;;;;;;3.38;0.80;;;8.90;99.90;;;;;;4862941;29;20523;-81
2024/04/04 04:46:17;;;;;;;6.50;1.35;;;8.90;99.90;;;;;;4846086;29;20655;-82
2024/04/04 04:48:43;;;;;;;5.35;1.23;;;8.80;99.90;;;;;;4862749;29;20226;-83
2024/04/04 04:51:10;;;;;;;3.58;1.00;;;8.80;99.90;;;;;;4855764;29;20194;-83
2024/04/04 04:53:36;;;;;;;7.25;1.27;;;8.80;99.90;;;;;;4842149;29;20174;-83
2024/04/04 04:56:03;;;;;;;3.22;1.10;;;8.70;99.90;;;;;;4841741;29;20194;-81
2024/04/04 04:58:29;;;;;;;2.33;0.80;;;8.80;99.90;;;;;;4843576;29;20202;-82
2024/04/04 05:00:56;;;;;;;4.63;1.10;;;8.80;99.90;;;;;;4843877;29;20553;-83
2024/04/04 05:03:23;;;;;;;5.07;1.38;;;8.70;99.90;;;;;;4843960;29;20201;-81
2024/04/04 05:05:50;;;;;;;7.97;1.80;;;8.60;99.90;;;;;;4843361;29;20324;-82
2024/04/04 05:08:17;;;;;;;6.13;1.33;;;8.60;99.90;;;;;;4844226;29;20199;-80
2024/04/04 05:10:44;;;;;;;3.60;0.95;;;8.60;99.90;;;;;;4844023;29;20219;-80
2024/04/04 05:13:09;;;;;;;5.30;1.13;;;8.60;99.90;;;;;;4860555;29;20168;-80
2024/04/04 05:15:53;;;;;;;4.38;1.08;;;8.50;99.90;;;;;;4860539;29;20192;-81
2024/04/04 05:18:19;;;;;;;7.00;1.35;;;8.50;99.90;;;;;;4860692;29;20204;-81
2024/04/04 05:20:45;;;;;;;4.90;1.10;;;8.60;99.90;;;;;;4860576;29;20209;-81
2024/04/04 05:23:11;;;;;;;4.75;1.30;;;8.60;99.90;;;;;;4860535;29;20212;-81
2024/04/04 05:25:36;;;;;;;2.65;1.00;;;8.70;99.90;;;;;;4860614;29;20493;-80
2024/04/04 05:28:02;;;;;;;2.88;1.13;;;8.70;99.90;;;;;;4860828;29;20183;-80
2024/04/04 05:30:30;;;;;;;2.78;0.90;;;8.70;99.90;;;;;;4860683;29;20752;-80
2024/04/04 05:32:59;;;;;;;4.38;1.13;;;8.70;99.90;;;;;;4860660;29;20169;-80
2024/04/04 05:35:24;;;;;;;3.85;0.68;;;8.70;99.90;;;;;;4861792;29;20180;-80
2024/04/04 05:37:50;;;;;;;2.30;0.75;;;8.90;99.90;;;;;;4862042;29;20191;-81
2024/04/04 05:40:16;;;;;;;4.65;1.13;;;8.80;99.90;;;;;;4853221;29;20728;-80
2024/04/04 05:42:42;;;;;;;5.15;0.90;;;8.90;99.90;;;;;;4843666;29;20176;-80
2024/04/04 05:45:07;;;;;;;7.63;1.30;;;9.00;99.90;;;;;;4843352;29;20181;-81
2024/04/04 05:47:33;;;;;;;3.00;0.90;;;9.10;99.90;;;;;;4843544;29;20234;-82
2024/04/04 05:49:59;;;;;;;4.82;1.20;;;9.20;99.90;;;;;;4843531;29;20222;-84
2024/04/04 05:52:24;;;;;;;4.00;1.40;;;9.30;99.90;;;;;;4844689;29;20184;-82
2024/04/04 05:54:52;;;;;;;4.95;1.50;;;9.30;99.90;;;;;;4845057;29;20199;-79
2024/04/04 05:57:17;;;;;;;7.95;1.80;;;9.40;99.90;;;;;;4845443;29;20508;-80
2024/04/04 05:59:44;;;;;;;6.53;1.80;;;9.50;99.90;;;;;;4861663;29;20211;-79
2024/04/04 06:02:09;;;;;;;3.28;1.90;;;9.60;99.90;;;;;;4860759;29;20167;-81
2024/04/04 06:04:35;;;;;;;5.93;2.17;;;9.80;99.90;;;;;;4863190;29;20189;-81
2024/04/04 06:07:01;;;;;;;5.20;1.60;;;9.90;99.90;;;;;;4864426;29;20221;-81
2024/04/04 06:09:27;;;;;;;4.68;1.58;;;9.90;99.90;;;;;;4865589;29;20253;-81
2024/04/04 06:11:53;;;;;;;7.47;1.65;;;9.90;99.90;;;;;;4865533;29;20181;-80
2024/04/04 06:14:18;;;;;;;5.38;1.45;;;9.90;99.90;;;;;;4863126;29;20185;-80
2024/04/04 06:16:44;;;;;;;3.15;1.40;;;9.80;99.90;;;;;;4848742;29;20181;-80
2024/04/04 06:19:10;;;;;;;6.57;1.30;;;9.80;99.90;;;;;;4864075;29;20232;-80
2024/04/04 06:21:37;;;;;;;5.60;1.92;;;9.80;99.90;;;;;;4865407;29;20184;-80
2024/04/04 06:24:03;;;;;;;5.65;1.80;;;9.80;99.90;;;;;;4865475;29;20168;-80
2024/04/04 06:26:29;;;;;;;6.32;1.98;;;9.90;99.90;;;;;;4848722;29;20192;-79
2024/04/04 06:28:55;;;;;;;6.35;1.67;;;10.00;99.90;;;;;;4848501;29;20183;-80
2024/04/04 06:31:22;;;;;;;8.13;1.90;;;10.00;99.90;;;;;;4864883;29;20532;-79
2024/04/04 06:33:47;;;;;;;3.50;1.33;;;10.00;99.90;;;;;;4846471;29;20197;-79
2024/04/04 06:36:13;;;;;;;4.28;1.17;;;10.00;99.90;;;;;;4844858;29;20197;-79
2024/04/04 06:38:40;;;;;;;1.95;1.20;;;10.00;99.90;;;;;;4845030;29;20365;-79
2024/04/04 06:41:06;;;;;;;5.20;1.15;;;10.00;99.90;;;;;;4844571;29;20245;-80
2024/04/04 06:43:31;;;;;;;4.93;1.05;;;10.00;99.90;;;;;;4843130;29;20637;-80
2024/04/04 06:45:57;;;;;;;6.07;1.10;;;10.00;99.90;;;;;;4845547;29;20225;-79
2024/04/04 06:48:23;;;;;;;6.28;0.82;;;9.90;99.90;;;;;;4844084;29;20191;-80
2024/04/04 06:50:49;;;;;;;3.33;0.90;;;9.90;99.90;;;;;;4847447;29;20197;-80
2024/04/04 06:53:14;;;;;;;7.35;1.05;;;9.90;99.90;;;;;;4828057;29;20205;-81
2024/04/04 06:55:40;;;;;;;5.70;1.00;;;9.90;99.90;;;;;;4846453;29;20640;-80
2024/04/04 06:58:06;;;;;;;4.97;0.82;;;9.90;99.90;;;;;;4831993;29;20632;-85
2024/04/04 07:00:31;;;;;;;6.45;1.23;;;9.90;99.90;;;;;;4846175;29;20536;-81
2024/04/04 07:02:57;;;;;;;5.20;1.00;;;9.80;99.90;;;;;;4853729;29;20696;-84
2024/04/04 07:05:24;;;;;;;2.30;0.75;;;9.70;99.90;;;;;;4846128;29;20301;-82
2024/04/04 07:07:51;;;;;;;2.58;0.80;;;9.70;99.90;;;;;;4830051;29;20197;-82
2024/04/04 07:10:17;;;;;;;7.05;0.90;;;9.70;99.90;;;;;;4842972;29;20992;-85
2024/04/04 07:12:43;;;;;;;3.15;0.90;;;9.60;99.90;;;;;;4826785;29;20284;-83
2024/04/04 07:15:09;;;;;;;4.75;0.90;;;9.70;99.90;;;;;;4844753;29;20177;-84
2024/04/04 07:17:34;;;;;;;3.63;0.90;;;9.70;99.90;;;;;;4846036;29;20268;-86
2024/04/04 07:20:00;;;;;;;4.07;1.10;;;9.80;99.90;;;;;;4845227;29;20696;-84
2024/04/04 07:22:26;;;;;;;3.47;1.05;;;9.80;99.90;;;;;;4845026;29;20180;-84
2024/04/04 07:24:52;;;;;;;7.18;1.30;;;9.90;99.90;;;;;;4844972;29;20200;-82
2024/04/04 07:27:18;;;;;;;2.35;0.90;;;9.90;99.90;;;;;;4841011;29;20196;-83
2024/04/04 07:29:46;;;;;;;4.00;0.82;;;10.00;99.90;;;;;;4863106;29;20267;-82
2024/04/04 07:32:13;;;;;;;5.65;0.95;;;10.00;99.90;;;;;;4847993;29;20276;-85
2024/04/04 07:34:39;;;;;;;7.57;1.00;;;10.00;99.90;;;;;;4845244;29;20217;-82
2024/04/04 07:37:05;;;;;;;4.93;0.88;;;10.00;99.90;;;;;;4829025;29;20216;-83
2024/04/04 07:39:33;;;;;;;4.63;0.82;;;10.00;99.90;;;;;;4845772;29;20282;-84
2024/04/04 07:41:59;;;;;;;3.17;0.75;;;10.10;99.90;;;;;;4855695;29;20188;-82
2024/04/04 07:44:26;;;;;;;6.30;1.08;;;10.10;99.90;;;;;;4847382;29;20180;-83
2024/04/04 07:46:52;;;;;;;6.43;1.10;;;10.20;99.90;;;;;;4863951;29;20183;-83
2024/04/04 07:49:18;;;;;;;3.03;1.00;;;10.20;99.90;;;;;;4863932;29;20244;-82
2024/04/04 07:51:49;;;;;;;3.78;1.10;;;10.20;99.90;;;;;;4846990;29;20271;-84
2024/04/04 07:54:14;;;;;;;3.65;0.95;;;10.30;99.90;;;;;;4862836;29;20272;-84
2024/04/04 07:56:40;;;;;;;2.63;1.10;;;10.30;99.90;;;;;;4862559;29;20267;-85
2024/04/04 07:59:07;;;;;;;5.57;0.70;;;10.30;99.90;;;;;;4847396;29;20800;-82
2024/04/04 08:01:33;;;;;;;3.28;1.00;;;10.30;99.90;;;;;;4846937;29;20624;-83
2024/04/04 08:03:59;;;;;;;6.07;0.90;;;10.40;99.90;;;;;;4862576;29;20220;-82
2024/04/04 08:06:25;;;;;;;2.75;1.00;;;10.50;99.90;;;;;;4863424;29;20260;-81
2024/04/04 08:08:51;;;;;;;8.13;1.35;;;10.40;99.90;;;;;;4863646;29;20609;-84
2024/04/04 08:11:16;;;;;;;2.05;0.80;;;10.50;99.90;;;;;;4862331;29;20200;-84
2024/04/04 08:13:45;;;;;;;6.57;0.93;;;10.50;99.90;;;;;;4863538;29;20175;-83
2024/04/04 08:16:11;;;;;;;3.78;1.05;;;10.50;99.90;;;;;;4846595;29;20249;-82
2024/04/04 08:18:37;;;;;;;9.27;1.17;;;10.50;99.90;;;;;;4863381;29;20294;-83
2024/04/04 08:21:03;;;;;;;5.20;0.95;;;10.60;99.90;;;;;;4846863;29;20196;-82
2024/04/04 08:23:30;;;;;;;2.88;0.90;;;10.60;99.90;;;;;;4863465;29;20188;-82
2024/04/04 08:25:57;;;;;;;1.58;0.70;;;10.60;99.90;;;;;;4862119;29;20527;-81
2024/04/04 08:28:24;;;;;;;1.95;0.80;;;10.60;99.90;;;;;;4861941;29;20192;-82
2024/04/04 08:31:02;;;;;;;2.58;1.02;;;10.70;99.90;;;;;;4862992;29;20267;-85
2024/04/04 08:33:28;;;;;;;3.60;0.90;;;10.70;99.90;;;;;;4863152;29;20185;-82
2024/04/04 08:35:54;;;;;;;5.70;1.30;;;10.80;99.90;;;;;;4863202;29;20251;-84
2024/04/04 08:38:21;;;;;;;4.47;1.02;;;10.80;99.90;;;;;;4863594;29;20807;-82
2024/04/04 08:40:48;;;;;;;4.20;1.10;;;10.90;99.90;;;;;;4846265;29;20648;-83
2024/04/04 08:43:15;;;;;;;1.75;0.70;;;10.90;99.90;;;;;;4860632;29;20643;-82
2024/04/04 08:45:49;;;;;;;2.97;1.10;;;10.90;99.90;;;;;;4851457;29;20264;-82
2024/04/04 08:48:19;;;;;;;4.93;1.17;;;10.90;99.90;;;;;;4844487;29;20177;-87
2024/04/04 08:50:46;;;;;;;2.42;0.80;;;11.00;99.90;;;;;;4843676;29;20173;-84
2024/04/04 08:53:19;;;;;;;6.28;1.17;;;10.90;99.90;;;;;;4844387;29;20178;-84
2024/04/04 08:55:46;;;;;;;3.85;0.88;;;10.90;99.90;;;;;;4844457;29;20236;-82
2024/04/04 08:58:16;;;;;;;3.38;1.10;;;10.90;99.90;;;;;;4843069;29;20697;-83
2024/04/04 09:00:43;;;;;;;4.20;1.17;;;10.90;99.90;;;;;;4842741;29;20193;-83
2024/04/04 09:03:10;;;;;;;4.50;0.90;;;10.90;99.90;;;;;;4844084;29;20321;-82
2024/04/04 09:05:41;;;;;;;4.43;0.98;;;10.90;99.90;;;;;;4827778;29;20697;-84
2024/04/04 09:08:06;;;;;;;4.65;1.20;;;10.90;99.90;;;;;;4844069;29;20165;-83
2024/04/04 09:10:32;;;;;;;4.57;1.02;;;10.90;99.90;;;;;;4843763;29;20511;-83
2024/04/04 09:13:10;;;;;;;3.90;0.98;;;10.90;99.90;;;;;;4845822;29;20192;-83
2024/04/04 09:15:37;;;;;;;3.50;1.00;;;11.00;99.90;;;;;;4860813;29;20555;-83
2024/04/04 09:18:05;;;;;;;2.25;0.90;;;11.00;99.90;;;;;;4862427;29;20180;-82
2024/04/04 09:20:35;;;;;;;2.75;1.10;;;11.00;99.90;;;;;;4844838;29;20228;-84
2024/04/04 09:23:01;;;;;;;4.68;0.90;;;11.00;99.90;;;;;;4862183;29;20176;-84
2024/04/04 09:25:28;;;;;;;2.05;0.73;;;11.00;99.90;;;;;;4861133;29;20237;-88
2024/04/04 09:27:54;;;;;;;2.38;1.10;;;11.10;99.90;;;;;;4861326;29;20281;-92
2024/04/04 09:30:25;;;;;;;2.85;1.00;;;11.20;99.90;;;;;;4862705;29;20602;-83
2024/04/04 09:32:52;;;;;;;3.17;0.98;;;11.10;99.90;;;;;;4862846;29;20200;-88
2024/04/04 09:35:19;;;;;;;3.13;0.75;;;11.10;99.90;;;;;;4846314;29;20180;-93
2024/04/04 09:37:46;;;;;;;3.95;1.00;;;11.10;99.90;;;;;;4845958;29;20188;-81
2024/04/04 09:40:13;;;;;;;3.08;1.00;;;11.10;99.90;;;;;;4862239;29;20248;-90
2024/04/04 09:42:45;;;;;;;2.47;1.00;;;11.10;99.90;;;;;;4846370;29;20204;-91
2024/04/04 09:45:12;;;;;;;3.97;1.10;;;11.10;99.90;;;;;;4846353;29;20183;-91
2024/04/04 09:47:48;;;;;;;3.42;1.20;;;11.10;99.90;;;;;;4860986;29;20213;-79
2024/04/04 09:50:18;;;;;;;3.30;1.30;;;11.20;99.90;;;;;;4862492;29;20256;-85
2024/04/04 09:52:46;;;;;;;3.40;1.17;;;11.20;99.90;;;;;;4860355;29;20181;-82
2024/04/04 09:55:14;;;;;;;3.13;1.10;;;11.20;99.90;;;;;;4846585;29;20529;-86
2024/04/04 09:57:41;;;;;;;5.32;1.35;;;11.30;99.90;;;;;;4860431;29;20173;-90
2024/04/04 10:00:16;;;;;;;2.33;1.13;;;11.30;99.90;;;;;;4827530;29;20221;-80
2024/04/04 10:03:00;;;;;;;1.35;1.08;;;11.30;99.90;;;;;;4843907;29;20173;-91
2024/04/04 10:05:36;;;;;;;6.28;1.15;;;11.30;99.90;;;;;;4861922;29;20287;-80
2024/04/04 10:08:12;;;;;;;2.53;1.02;;;11.30;99.90;;;;;;4844833;29;20185;-86
2024/04/04 10:10:43;;;;;;;1.15;0.90;;;11.40;99.90;;;;;;4845966;29;20196;-89
2024/04/04 10:13:12;;;;;;;1.88;1.05;;;11.40;99.90;;;;;;4848292;29;20213;-91
2024/04/04 10:15:57;;;;;;;7.75;1.40;;;11.50;99.90;;;;;;4843556;29;20261;-93
2024/04/04 10:18:23;;;;;;;4.18;1.55;;;11.50;99.90;;;;;;4830067;29;20235;-84
2024/04/04 10:20:53;;;;;;;4.53;1.30;;;11.60;99.90;;;;;;4836848;29;20269;-91
2024/04/04 10:23:27;;;;;;;4.05;1.60;;;11.60;99.90;;;;;;4843902;29;20204;-94
2024/04/04 10:26:07;;;;;;;3.92;1.30;;;11.70;99.90;;;;;;4827292;29;20184;-80
2024/04/04 10:28:33;;;;;;;3.25;1.25;;;11.80;99.90;;;;;;4829608;29;20677;-81
2024/04/04 10:30:59;;;;;;;3.13;1.20;;;11.80;99.90;;;;;;4861717;29;20185;-85
2024/04/04 10:33:24;;;;;;;7.03;1.63;;;11.90;99.90;;;;;;4861178;29;20180;-81
2024/04/04 10:35:57;;;;;;;7.43;1.27;;;11.90;99.90;;;;;;4861850;29;20176;-89
2024/04/04 10:38:23;;;;;;;4.00;1.58;;;11.90;99.90;;;;;;4860740;29;20192;-83
2024/04/04 10:40:49;;;;;;;4.20;1.52;;;12.00;99.90;;;;;;4861837;29;20314;-81
2024/04/04 10:43:15;;;;;;;2.13;1.23;;;12.00;99.90;;;;;;4845142;29;20185;-87
2024/04/04 10:45:40;;;;;;;6.30;1.60;;;12.00;99.90;;;;;;4861041;29;20188;-83
2024/04/04 10:48:06;;;;;;;3.45;1.65;;;12.00;99.90;;;;;;4845276;29;20309;-82
2024/04/04 10:50:35;;;;;;;1.60;1.02;;;12.00;99.90;;;;;;4846877;29;20317;-81
2024/04/04 10:53:01;;;;;;;4.95;1.65;;;12.00;99.90;;;;;;4865376;29;20237;-82
2024/04/04 10:55:28;;;;;;;3.80;1.20;;;12.00;99.90;;;;;;4848826;29;20184;-82
2024/04/04 10:57:54;;;;;;;2.65;1.23;;;12.00;99.90;;;;;;4866068;29;20181;-86
2024/04/04 11:00:23;;;;;;;3.97;1.40;;;12.00;99.90;;;;;;4849798;29;20650;-82
2024/04/04 11:02:50;;;;;;;4.13;1.48;;;12.00;99.90;;;;;;4865390;29;20199;-82
2024/04/04 11:05:24;;;;;;;2.58;1.13;;;12.00;99.90;;;;;;4849481;29;20286;-84
2024/04/04 11:07:57;;;;;;;2.92;1.40;;;12.10;99.90;;;;;;4849636;29;20188;-91
2024/04/04 11:10:23;;;;;;;4.40;1.80;;;12.10;99.90;;;;;;4844543;29;20700;-86
2024/04/04 11:12:49;;;;;;;3.58;1.45;;;12.10;99.90;;;;;;4850505;29;20213;-85
2024/04/04 11:15:16;;;;;;;3.33;1.23;;;12.20;99.90;;;;;;4851482;29;20184;-91
2024/04/04 11:17:42;;;;;;;1.55;1.10;;;12.20;99.90;;;;;;4850417;29;20256;-93
2024/04/04 11:20:14;;;;;;;3.25;1.40;;;12.20;99.90;;;;;;4853913;29;20260;-83
2024/04/04 11:22:41;;;;;;;2.72;1.20;;;12.30;99.90;;;;;;4870081;29;20224;-83
2024/04/04 11:25:07;;;;;;;2.67;1.23;;;12.30;99.90;;;;;;4850002;29;20188;-83
2024/04/04 11:27:34;;;;;;;5.13;1.27;;;12.40;99.90;;;;;;4847445;29;20191;-82
2024/04/04 11:30:00;;;;;;;3.63;1.13;;;12.40;99.90;;;;;;4848988;29;20540;-83
2024/04/04 11:32:25;;;;;;;6.15;1.30;;;12.40;99.90;;;;;;4864185;29;20192;-81
2024/04/04 11:34:53;;;;;;;3.83;1.50;;;12.50;99.90;;;;;;4863278;29;20188;-82
2024/04/04 11:37:24;;;;;;;3.92;1.25;;;12.50;99.90;;;;;;4846513;29;20195;-82
2024/04/04 11:39:50;;;;;;;3.50;1.35;;;12.60;99.90;;;;;;4862879;29;20612;-81
2024/04/04 11:42:17;;;;;;;2.30;1.33;;;12.70;99.90;;;;;;4863497;29;20579;-82
2024/04/04 11:44:43;;;;;;;2.75;1.20;;;12.80;99.90;;;;;;4862457;29;20217;-82
2024/04/04 11:47:14;;;;;;;1.48;1.00;;;12.80;99.90;;;;;;4863035;29;20212;-83
2024/04/04 11:49:40;;;;;;;2.67;1.20;;;12.80;99.90;;;;;;4863766;29;20177;-83
2024/04/04 11:52:06;;;;;;;2.13;1.10;;;12.80;99.90;;;;;;4846541;29;20637;-82
2024/04/04 11:54:32;;;;;;;3.50;1.65;;;12.80;99.90;;;;;;4863465;29;20196;-82
2024/04/04 11:56:58;;;;;;;2.47;1.60;;;12.80;99.90;;;;;;4846118;29;20687;-82
2024/04/04 11:59:24;;;;;;;4.35;1.60;;;12.80;99.90;;;;;;4846945;29;20312;-84
2024/04/04 12:01:52;;;;;;;4.88;1.73;;;12.80;99.90;;;;;;4845590;29;20192;-84
2024/04/04 12:04:18;;;;;;;3.30;1.52;;;12.80;99.90;;;;;;4863619;29;20213;-87
2024/04/04 12:06:43;;;;;;;2.38;1.30;;;12.70;99.90;;;;;;4861404;29;20228;-81
2024/04/04 12:09:13;;;;;;;2.97;1.10;;;12.70;99.90;;;;;;4846813;29;20211;-81
2024/04/04 12:11:40;;;;;;;2.30;1.20;;;12.70;99.90;;;;;;4845951;29;20177;-82
2024/04/04 12:14:07;;;;;;;2.03;0.98;;;12.70;99.90;;;;;;4846517;29;20232;-82
2024/04/04 12:16:33;;;;;;;3.10;0.80;;;12.70;99.90;;;;;;4862293;29;20204;-83
2024/04/04 12:21:44;;;;;;;3.88;1.30;;;12.70;99.90;;;;;;4863839;29;20628;-83
2024/04/04 12:24:11;;;;;;;1.92;0.80;;;12.70;99.90;;;;;;4846756;29;20188;-81
2024/04/04 12:26:37;;;;;;;5.00;1.05;;;12.70;99.90;;;;;;4862148;29;20184;-82
2024/04/04 12:29:03;;;;;;;1.50;0.80;;;12.70;99.90;;;;;;4846374;29;20276;-82
2024/04/04 12:31:28;;;;;;;1.63;0.70;;;12.60;99.90;;;;;;4863416;29;20259;-82
2024/04/04 12:33:54;;;;;;;2.00;0.73;;;12.70;99.90;;;;;;4863314;29;20223;-81
2024/04/04 12:36:20;;;;;;;1.23;0.50;;;12.70;99.90;;;;;;4851622;29;20185;-81
2024/04/04 12:38:46;;;;;;;1.30;0.52;;;12.60;99.90;;;;;;4843657;29;20217;-84
2024/04/04 12:41:12;;;;;;;1.13;0.30;;;12.60;99.90;;;;;;4851477;29;20223;-84
2024/04/04 12:43:37;;;;;;;0.68;0.50;;;12.70;99.90;;;;;;4863187;29;20540;-81
2024/04/04 12:46:05;;;;;;;1.13;0.43;;;12.80;99.90;;;;;;4860580;29;20200;-81
2024/04/04 12:48:31;;;;;;;0.98;0.40;;;12.90;99.90;;;;;;4844847;29;20188;-80
2024/04/04 12:50:58;;;;;;;1.25;0.57;;;13.10;99.90;;;;;;4833815;29;20192;-82